Time;durP1;ratioP1;P1;durP2;ratioP2;P2;SDS_P1;SDS_P2;PMS_P1;PMS_P2;Temp;Humidity;BMP_temperature;BMP_pressure;BME280_temperature;BME280_humidity;BME280_pressure;Samples;Min_cycle;Max_cycle;Signal;HPM_P1;HPM_P2
2021/05/18 00:00:10;;;;;;;0.83;0.57;;;11.10;76.80;;;11.21;64.08;97231.97;5023860;28;20057;-48
2021/05/18 00:02:39;;;;;;;1.37;0.77;;;11.00;77.40;;;11.27;64.12;97230.44;5022737;28;20049;-47
2021/05/18 00:05:12;;;;;;;0.70;0.70;;;11.00;77.80;;;11.31;63.85;97236.25;5024594;28;20455;-46
2021/05/18 00:07:46;;;;;;;4.93;1.43;;;11.10;77.90;;;11.27;63.78;97241.09;5025999;28;20053;-47
2021/05/18 00:13:02;;;;;;;1.50;0.68;;;11.20;76.30;;;11.22;63.91;97246.13;5010307;28;20347;-49
2021/05/18 00:15:30;;;;;;;0.70;0.55;;;11.20;76.20;;;11.23;63.58;97242.47;5024658;28;20057;-49
2021/05/18 00:17:59;;;;;;;0.50;0.50;;;11.20;76.20;;;11.24;63.90;97260.09;5024275;28;20049;-51
2021/05/18 00:20:28;;;;;;;0.40;0.40;;;11.20;76.20;;;11.23;63.77;97259.28;5007359;28;20069;-50
2021/05/18 00:22:56;;;;;;;1.93;0.57;;;11.20;76.30;;;11.26;63.73;97265.25;5024669;28;20042;-48
2021/05/18 00:25:24;;;;;;;0.50;0.50;;;11.20;76.20;;;11.25;63.71;97272.44;5022352;28;20046;-49
2021/05/18 00:27:52;;;;;;;0.70;0.50;;;11.10;76.90;;;11.19;64.05;97271.28;5026732;28;20045;-48
2021/05/18 00:30:21;;;;;;;1.30;0.90;;;11.00;77.30;;;11.23;63.60;97264.59;5027137;28;20049;-48
2021/05/18 00:32:50;;;;;;;1.13;0.63;;;11.00;77.90;;;11.25;63.64;97272.44;5027631;28;20053;-47
2021/05/18 00:35:19;;;;;;;1.83;0.57;;;10.90;77.90;;;11.25;64.05;97277.75;5027718;28;20053;-48
2021/05/18 00:37:47;;;;;;;0.85;0.60;;;10.90;78.30;;;11.28;63.99;97271.25;5027249;28;20064;-50
2021/05/18 00:40:18;;;;;;;1.50;0.63;;;11.00;78.50;;;11.33;64.13;97269.72;5028508;28;20084;-45
2021/05/18 00:42:49;;;;;;;0.50;0.40;;;11.00;78.40;;;11.35;64.26;97267.69;5027019;28;20034;-50
2021/05/18 00:45:30;;;;;;;1.67;0.80;;;11.10;78.60;;;11.37;64.18;97267.53;5028030;28;20049;-47
2021/05/18 00:48:01;;;;;;;1.00;0.90;;;11.10;79.20;;;11.38;64.35;97264.69;5010786;28;20049;-50
2021/05/18 00:50:30;;;;;;;1.00;0.77;;;11.10;78.60;;;11.40;64.44;97264.53;5010299;28;20091;-48
2021/05/18 00:53:01;;;;;;;0.70;0.70;;;11.10;78.60;;;11.38;64.41;97271.84;5027755;28;20075;-49
2021/05/18 00:55:41;;;;;;;0.60;0.60;;;11.10;78.60;;;11.38;64.30;97275.38;5026457;28;20041;-47
2021/05/18 00:58:26;;;;;;;2.10;0.93;;;11.10;79.00;;;11.37;64.17;97267.53;5028687;28;20335;-47
2021/05/18 01:00:58;;;;;;;0.82;0.60;;;11.10;78.60;;;11.40;64.17;97267.19;5024898;28;20088;-49
2021/05/18 01:03:28;;;;;;;1.30;0.90;;;11.10;78.80;;;11.40;63.99;97270.69;5027182;28;20419;-48
2021/05/18 01:08:46;;;;;;;0.90;0.70;;;11.10;78.60;;;11.37;64.39;97270.19;5025548;28;20063;-51
2021/05/18 01:11:17;;;;;;;0.90;0.70;;;11.10;78.30;;;11.27;64.17;97267.75;5009844;28;20057;-47
2021/05/18 01:13:45;;;;;;;0.50;0.47;;;11.10;77.60;;;11.27;64.36;97278.41;5027468;28;20061;-47
2021/05/18 01:16:13;;;;;;;0.50;0.50;;;11.10;77.90;;;11.27;63.90;97277.59;5026048;28;20366;-46
2021/05/18 01:18:47;;;;;;;0.60;0.60;;;11.10;78.00;;;11.20;64.84;97274.78;5026681;28;20069;-49
2021/05/18 01:21:17;;;;;;;1.25;0.75;;;11.10;78.20;;;11.14;65.13;97275.47;5010422;28;20061;-46
2021/05/18 01:23:46;;;;;;;1.25;0.70;;;11.10;78.20;;;11.09;65.73;97276.00;5027622;28;20064;-45
2021/05/18 01:26:15;;;;;;;0.70;0.70;;;11.10;78.50;;;11.00;65.87;97271.72;5025940;28;20059;-47
2021/05/18 01:28:44;;;;;;;0.90;0.70;;;11.00;78.80;;;10.87;65.95;97277.56;5027392;28;20061;-48
2021/05/18 01:31:19;;;;;;;1.20;1.08;;;11.00;78.80;;;10.81;66.86;97281.75;5026445;28;20589;-47
2021/05/18 01:33:49;;;;;;;2.75;0.50;;;10.90;79.40;;;10.79;66.39;97277.63;5024643;28;20248;-48
2021/05/18 01:36:21;;;;;;;0.50;0.50;;;10.80;80.30;;;10.79;67.13;97267.78;5025622;28;20053;-48
2021/05/18 01:44:16;;;;;;;0.63;0.55;;;10.70;80.70;;;10.79;67.14;97261.63;5026945;28;20049;-47
2021/05/18 01:46:46;;;;;;;0.60;0.60;;;10.80;81.00;;;10.82;66.69;97269.28;5027087;28;20049;-48
2021/05/18 01:49:18;;;;;;;2.57;1.30;;;10.80;80.70;;;10.85;66.59;97260.94;5026333;28;20071;-45
2021/05/18 01:51:54;;;;;;;0.85;0.60;;;10.80;80.60;;;10.88;66.62;97265.13;5028703;28;20243;-48
2021/05/18 01:54:30;;;;;;;;;;;10.90;80.40;;;10.87;66.74;97258.13;5028033;28;20049;-45
2021/05/18 01:57:19;;;;;;;1.57;0.90;;;10.90;81.10;;;10.89;66.27;97256.94;5025319;28;19917;-47
2021/05/18 02:00:21;;;;;;;1.87;0.73;;;10.90;81.20;;;10.90;66.69;97265.78;5020176;28;20063;-49
2021/05/18 02:02:57;;;;;;;0.73;0.60;;;10.80;80.30;;;10.93;65.76;97270.72;5023950;28;20053;-48
2021/05/18 02:05:36;;;;;;;0.80;0.70;;;10.80;80.40;;;10.94;65.89;97275.91;5025796;28;20065;-45
2021/05/18 02:08:23;;;;;;;0.73;0.73;;;10.80;80.50;;;10.95;65.99;97284.72;5007123;28;20404;-47
2021/05/18 02:10:57;;;;;;;0.97;0.60;;;10.70;80.50;;;10.97;65.68;97282.69;5026535;28;20081;-47
2021/05/18 02:13:25;;;;;;;0.57;0.47;;;10.70;80.30;;;10.94;65.87;97291.06;5025882;28;20057;-47
2021/05/18 02:16:05;;;;;;;0.50;0.50;;;10.70;80.20;;;10.95;65.54;97287.38;5025651;28;20053;-47
2021/05/18 02:18:59;;;;;;;1.33;0.47;;;10.70;80.50;;;10.93;65.44;97287.53;5025148;28;20049;-47
2021/05/18 02:24:44;;;;;;;0.53;0.53;;;10.70;80.20;;;10.84;65.58;97302.72;5024734;28;20049;-46
2021/05/18 02:27:20;;;;;;;0.70;0.70;;;10.70;79.90;;;10.81;65.66;97303.06;5012776;28;20054;-45
2021/05/18 02:29:49;;;;;;;0.67;0.67;;;10.70;79.80;;;10.82;65.79;97298.59;5025300;28;20254;-46
2021/05/18 02:32:17;;;;;;;1.23;0.73;;;10.70;79.80;;;10.79;65.98;97309.56;5027036;28;20045;-48
2021/05/18 02:34:58;;;;;;;0.73;0.60;;;10.60;79.60;;;10.72;65.68;97306.78;5026170;28;20053;-48
2021/05/18 02:37:26;;;;;;;3.03;0.60;;;10.50;79.70;;;10.74;65.72;97303.91;5006076;28;20061;-45
2021/05/18 02:39:55;;;;;;;0.70;0.57;;;10.50;79.80;;;10.73;65.56;97304.94;5026096;28;20046;-46
2021/05/18 02:42:25;;;;;;;0.63;0.50;;;10.50;79.80;;;10.72;65.37;97300.59;5023443;28;20259;-45
2021/05/18 02:45:04;;;;;;;1.50;0.50;;;10.50;79.40;;;10.72;65.22;97298.78;5005816;28;20049;-46
2021/05/18 02:50:20;;;;;;;3.13;0.97;;;10.50;79.40;;;10.73;65.38;97308.41;5023629;28;20049;-47
2021/05/18 02:52:49;;;;;;;0.70;0.60;;;10.50;79.30;;;10.72;65.10;97311.25;5008035;28;20071;-46
2021/05/18 02:58:18;;;;;;;1.45;1.27;;;10.50;79.10;;;10.58;65.04;97304.78;5008824;28;20061;-47
2021/05/18 03:00:47;;;;;;;1.00;0.90;;;10.30;79.50;;;10.53;65.43;97299.97;5025352;28;20067;-46
2021/05/18 03:03:15;;;;;;;1.27;1.03;;;10.30;79.60;;;10.46;65.57;97308.81;5025309;28;20053;-45
2021/05/18 03:05:44;;;;;;;3.43;2.20;;;10.30;79.20;;;10.50;65.81;97305.63;5025547;28;20045;-47
2021/05/18 03:08:13;;;;;;;3.90;2.20;;;10.40;79.30;;;10.48;65.89;97314.78;5025642;28;20055;-47
2021/05/18 03:10:41;;;;;;;3.70;2.47;;;10.40;79.20;;;10.42;65.74;97310.97;5024139;28;20233;-46
2021/05/18 03:13:09;;;;;;;2.73;1.37;;;10.40;79.00;;;10.38;66.09;97305.16;5026217;28;20548;-46
2021/05/18 03:15:38;;;;;;;3.60;2.50;;;10.40;78.80;;;10.40;66.29;97307.66;5023611;28;20065;-48
2021/05/18 03:18:06;;;;;;;3.20;1.77;;;10.40;79.10;;;10.36;66.06;97309.81;5025258;28;20339;-47
2021/05/18 03:20:34;;;;;;;1.95;1.33;;;10.40;78.90;;;10.33;66.50;97309.31;5026213;28;20059;-48
2021/05/18 03:23:03;;;;;;;2.63;1.10;;;10.30;79.70;;;10.30;66.36;97315.81;5025224;28;20050;-48
2021/05/18 03:25:31;;;;;;;1.03;0.80;;;10.30;79.50;;;10.29;66.27;97314.09;5024057;28;20319;-48
2021/05/18 03:27:59;;;;;;;1.07;0.97;;;10.30;79.40;;;10.30;66.10;97320.28;5025104;28;20056;-46
2021/05/18 03:35:46;;;;;;;1.10;0.77;;;10.20;79.30;;;10.28;65.89;97311.63;5025506;28;20072;-46
2021/05/18 03:38:27;;;;;;;2.17;1.40;;;10.20;79.10;;;10.28;66.08;97323.09;5023425;28;20075;-46
2021/05/18 03:41:00;;;;;;;1.03;0.70;;;10.20;79.60;;;10.27;66.16;97324.09;5024954;28;20056;-45
2021/05/18 04:51:27;;;;;;;3.13;0.77;;;10.60;77.90;;;10.56;65.61;97379.47;5067908;28;20075;-48
2021/05/18 04:59:43;;;;;;;0.83;0.70;;;10.70;77.70;;;10.61;65.58;97392.31;5068128;28;20059;-49
2021/05/18 05:07:12;;;;;;;2.20;0.80;;;10.70;77.90;;;10.61;65.52;97394.97;5067890;28;20509;-50
2021/05/18 05:09:46;;;;;;;1.93;1.13;;;10.70;77.70;;;10.64;65.98;97406.13;5066224;28;20067;-48
2021/05/18 05:14:54;;;;;;;0.90;0.80;;;10.70;78.10;;;10.69;65.90;97410.94;5066749;28;20233;-47
2021/05/18 05:17:22;;;;;;;2.63;1.40;;;10.80;78.10;;;10.74;65.61;97424.59;5066123;28;20060;-48
2021/05/18 05:19:51;;;;;;;1.38;0.80;;;10.80;78.20;;;10.70;65.75;97423.25;5066415;28;20403;-48
2021/05/18 05:22:19;;;;;;;1.80;1.23;;;10.80;78.00;;;10.76;65.64;97432.38;5067680;28;20552;-49
2021/05/18 05:24:48;;;;;;;1.30;1.10;;;10.80;78.00;;;10.80;65.44;97421.25;5066222;28;20066;-49
2021/05/18 05:27:17;;;;;;;0.80;0.80;;;10.90;78.00;;;10.89;65.56;97424.72;5082131;28;20028;-49
2021/05/18 05:30:00;;;;;;;0.93;0.85;;;10.90;78.00;;;10.92;65.46;97429.72;5067751;28;20059;-48
2021/05/18 05:32:29;;;;;;;1.33;0.80;;;11.00;77.70;;;10.99;65.01;97430.72;5067805;28;20051;-51
2021/05/18 05:34:57;;;;;;;1.10;1.00;;;11.00;77.40;;;11.02;65.49;97422.38;5065096;28;20056;-49
2021/05/18 05:37:25;;;;;;;2.67;1.33;;;11.10;77.60;;;11.03;65.16;97426.72;5067811;28;20616;-47
2021/05/18 05:39:54;;;;;;;1.60;1.00;;;11.10;77.70;;;11.02;65.57;97440.19;5065834;28;20373;-50
2021/05/18 05:42:24;;;;;;;2.10;0.60;;;11.00;78.30;;;10.95;66.19;97439.19;5066282;28;20048;-50
2021/05/18 05:44:52;;;;;;;1.40;1.10;;;11.00;79.30;;;10.91;66.17;97443.19;5066823;28;20219;-49
2021/05/18 05:47:20;;;;;;;1.43;0.70;;;10.90;79.80;;;10.77;66.77;97447.38;5067605;28;20054;-49
2021/05/18 05:49:49;;;;;;;2.00;1.17;;;10.80;80.90;;;10.74;67.05;97443.22;5080867;28;20083;-49
2021/05/18 05:52:19;;;;;;;1.63;1.23;;;10.70;81.60;;;10.69;67.39;97442.88;5066801;28;20043;-54
2021/05/18 05:54:51;;;;;;;1.73;1.07;;;10.50;82.60;;;10.61;67.05;97438.38;5065812;28;20059;-49
2021/05/18 05:57:20;;;;;;;2.10;0.97;;;10.40;83.20;;;10.57;67.55;97433.56;5063826;28;20060;-53
2021/05/18 05:59:49;;;;;;;1.77;1.30;;;10.40;83.40;;;10.53;67.80;97441.06;5064426;28;20060;-50
2021/05/18 06:02:18;;;;;;;2.67;1.05;;;10.30;83.30;;;10.57;67.98;97447.69;5066316;28;20049;-50
2021/05/18 06:04:46;;;;;;;2.40;1.10;;;10.30;83.70;;;10.58;68.14;97448.53;5059748;28;20053;-50
2021/05/18 06:07:14;;;;;;;1.33;0.97;;;10.30;84.60;;;10.58;67.86;97446.69;5044758;28;20037;-50
2021/05/18 06:09:45;;;;;;;2.40;0.97;;;10.40;84.50;;;10.59;68.22;97447.53;5045564;28;20053;-53
2021/05/18 06:12:30;;;;;;;1.83;1.67;;;10.40;84.10;;;10.61;68.11;97442.88;5046087;28;20049;-53
2021/05/18 06:34:36;;;;;;;1.10;0.70;;;11.00;81.80;;;11.01;67.81;97454.50;5026881;28;20055;-49
2021/05/18 06:42:42;;;;;;;1.83;0.90;;;10.90;81.60;;;11.05;67.28;97469.16;5047094;28;20057;-47
2021/05/18 06:47:57;;;;;;;1.97;1.30;;;11.10;81.40;;;11.01;67.57;97465.16;5043871;28;20071;-49
2021/05/18 06:50:29;;;;;;;0.80;0.80;;;11.00;81.90;;;11.07;67.18;97471.63;5026915;28;20254;-48
2021/05/18 06:52:58;;;;;;;1.80;0.70;;;11.00;81.50;;;11.13;67.74;97474.47;5046427;28;20061;-52
2021/05/18 06:55:30;;;;;;;1.27;0.80;;;11.10;81.80;;;11.14;67.85;97476.13;5044432;28;20066;-50
2021/05/18 06:58:10;;;;;;;1.63;0.90;;;11.10;81.40;;;11.20;67.49;97478.09;5026703;28;20059;-48
2021/05/18 07:00:42;;;;;;;2.95;1.88;;;11.20;81.20;;;11.28;67.08;97485.25;5045889;28;20056;-47
2021/05/18 07:03:16;;;;;;;6.75;1.10;;;11.30;82.00;;;11.32;67.23;97486.59;5045494;28;20053;-48
2021/05/18 07:06:05;;;;;;;3.65;1.10;;;11.30;81.40;;;11.13;67.26;97493.13;5045219;28;20040;-50
2021/05/18 07:11:02;;;;;;;2.13;0.98;;;11.00;81.80;;;11.02;67.53;97494.28;5044833;28;20059;-47
2021/05/18 07:13:30;;;;;;;4.40;1.60;;;11.10;81.10;;;11.16;67.70;97498.09;5027267;28;20057;-47
2021/05/18 07:15:58;;;;;;;3.20;1.20;;;11.20;81.60;;;11.20;67.51;97496.75;5044823;28;20338;-47
2021/05/18 07:18:26;;;;;;;1.75;1.33;;;11.30;80.80;;;11.30;67.29;97493.09;5044232;28;20045;-46
2021/05/18 07:20:55;;;;;;;2.63;1.52;;;11.40;81.20;;;11.28;67.50;97506.56;5043590;28;20049;-49
2021/05/18 07:23:25;;;;;;;2.95;1.20;;;11.20;80.70;;;11.26;67.04;97503.25;5046232;28;20045;-46
2021/05/18 07:25:53;;;;;;;3.25;1.90;;;11.30;80.80;;;11.15;67.32;97504.44;5043168;28;20057;-48
2021/05/18 07:28:24;;;;;;;3.22;1.75;;;11.10;81.00;;;11.00;67.21;97516.78;5044405;28;20059;-51
2021/05/18 07:30:52;;;;;;;4.77;1.60;;;11.00;80.20;;;11.00;67.60;97506.13;5044957;28;20372;-48
2021/05/18 07:33:20;;;;;;;2.50;1.95;;;10.90;81.20;;;11.02;67.39;97498.78;5045439;28;20049;-49
2021/05/18 07:35:53;;;;;;;2.40;1.58;;;11.10;81.00;;;11.11;67.63;97502.25;5043450;28;20055;-46
2021/05/18 07:38:22;;;;;;;4.70;1.80;;;11.10;81.10;;;11.13;67.42;97506.44;5043203;28;20053;-48
2021/05/18 07:40:51;;;;;;;4.95;2.03;;;11.20;80.10;;;11.07;67.33;97496.47;5046324;28;20045;-50
2021/05/18 07:43:19;;;;;;;4.13;1.90;;;11.10;80.50;;;11.16;67.12;97505.28;5042634;28;20059;-48
2021/05/18 07:45:56;;;;;;;6.53;1.92;;;11.10;81.00;;;11.27;67.05;97507.59;5056156;28;20053;-46
2021/05/18 07:48:44;;;;;;;3.97;1.80;;;11.30;81.70;;;11.27;66.94;97498.78;5046126;28;20056;-47
2021/05/18 07:51:33;;;;;;;3.90;1.95;;;11.30;80.30;;;11.41;67.12;97503.41;5056063;28;20049;-47
2021/05/18 08:07:36;;;;;;;3.13;1.38;;;11.70;78.00;;;11.59;65.73;97505.84;5055877;28;20055;-47
2021/05/18 08:12:41;;;;;;;2.75;1.77;;;12.00;77.60;;;11.63;64.84;97488.50;5058120;28;20366;-46
2021/05/18 10:36:11;;;;;;;2.33;0.95;;;13.40;58.60;;;12.95;54.13;97382.56;5066107;28;20060;-44
2021/05/18 10:38:44;;;;;;;1.75;0.77;;;13.30;62.20;;;13.06;55.49;97397.31;5065164;28;20514;-49
2021/05/18 10:41:22;;;;;;;6.00;0.93;;;13.50;64.10;;;13.11;54.33;97394.94;5066533;28;20059;-46
2021/05/18 10:44:02;;;;;;;3.35;1.23;;;13.60;61.60;;;13.27;53.61;97391.25;5047311;28;20052;-46
2021/05/18 10:46:47;;;;;;;2.75;1.13;;;13.80;61.10;;;13.20;54.35;97392.97;5066352;28;20059;-44
2021/05/18 10:49:29;;;;;;;1.55;0.82;;;13.70;61.40;;;13.26;56.53;97391.41;5064951;28;20044;-45
2021/05/18 10:52:06;;;;;;;2.67;1.02;;;13.70;65.30;;;13.26;53.63;97388.75;5066130;28;20049;-45
2021/05/18 10:54:42;;;;;;;3.70;0.93;;;13.70;61.10;;;13.13;49.90;97397.44;5078766;28;20049;-45
2021/05/18 10:57:19;;;;;;;2.75;0.93;;;13.60;56.20;;;13.25;51.92;97390.59;5064682;28;20052;-43
2021/05/18 11:00:06;;;;;;;2.90;1.05;;;13.70;58.60;;;13.37;52.40;97385.66;5066432;28;20233;-45
2021/05/18 11:02:38;;;;;;;3.70;1.23;;;13.90;59.80;;;13.46;52.21;97389.91;5063847;28;20058;-42
2021/05/18 11:05:14;;;;;;;1.85;1.20;;;14.00;59.50;;;13.44;50.95;97381.22;5064050;28;20134;-44
2021/05/18 11:07:47;;;;;;;4.35;0.90;;;14.10;57.20;;;13.59;48.92;97395.41;5063854;28;20044;-47
2021/05/18 11:10:18;;;;;;;1.58;1.15;;;14.20;54.70;;;13.63;50.09;97393.19;5065627;28;20048;-46
2021/05/18 11:12:52;;;;;;;2.08;0.90;;;14.20;56.40;;;13.71;51.26;97389.59;5065931;28;20044;-45
2021/05/18 11:15:24;;;;;;;1.67;1.02;;;14.30;57.80;;;13.65;50.48;97395.66;5063506;28;20346;-47
2021/05/18 11:17:54;;;;;;;0.80;0.80;;;14.20;57.40;;;13.66;49.71;97387.47;5064946;28;20266;-46
2021/05/18 11:23:21;;;;;;;2.65;0.88;;;14.30;57.10;;;13.73;48.40;97385.69;5065609;28;20481;-45
2021/05/18 11:26:03;;;;;;;0.88;0.70;;;14.30;54.70;;;13.62;48.06;97378.16;5046101;28;20052;-47
2021/05/18 11:28:40;;;;;;;1.13;0.93;;;14.30;54.20;;;13.74;48.12;97392.69;5065133;28;20058;-45
2021/05/18 11:31:27;;;;;;;1.08;0.95;;;14.40;54.40;;;13.68;48.10;97392.63;5064833;28;20053;-46
2021/05/18 11:34:05;;;;;;;0.65;0.60;;;14.30;54.80;;;13.54;45.69;97380.94;5047950;28;20052;-45
2021/05/18 11:36:40;;;;;;;0.82;0.50;;;14.00;50.70;;;13.55;45.09;97382.59;5064053;28;20242;-46
2021/05/18 11:39:14;;;;;;;0.47;0.47;;;14.00;50.90;;;13.51;44.03;97392.84;5064993;28;20055;-46
2021/05/18 11:41:45;;;;;;;0.50;0.40;;;14.00;49.10;;;13.45;43.31;97374.84;5064329;28;20239;-44
2021/05/18 11:44:14;;;;;;;1.38;0.75;;;13.90;49.40;;;13.46;44.21;97381.88;5063694;28;20056;-44
2021/05/18 11:46:48;;;;;;;1.60;0.75;;;14.00;51.40;;;13.46;44.55;97386.41;5064636;28;20063;-46
2021/05/18 11:49:19;;;;;;;0.75;0.60;;;14.00;50.80;;;13.66;46.96;97378.63;5063958;28;20040;-48
2021/05/18 11:51:51;;;;;;;1.30;0.63;;;14.10;53.40;;;13.76;45.47;97369.28;5063577;28;20905;-47
2021/05/18 11:54:36;;;;;;;3.67;1.77;;;14.20;52.50;;;13.74;45.25;97376.66;5063147;28;20040;-47
2021/05/18 11:57:05;;;;;;;1.15;0.73;;;14.30;52.20;;;13.78;45.48;97367.25;5047385;28;20056;-45
2021/05/18 11:59:37;;;;;;;0.73;0.73;;;14.30;52.00;;;13.88;45.61;97360.75;5064019;28;20055;-49
2021/05/18 12:02:06;;;;;;;1.35;1.10;;;14.40;52.10;;;13.83;45.59;97365.84;5063682;28;20801;-44
2021/05/18 12:04:40;;;;;;;1.42;0.82;;;14.50;50.90;;;13.95;45.58;97353.63;5064416;28;20916;-45
2021/05/18 12:07:12;;;;;;;4.97;1.73;;;14.50;52.10;;;13.88;45.19;97342.88;5064470;28;20057;-45
2021/05/18 12:09:47;;;;;;;0.85;0.75;;;14.50;51.00;;;14.03;46.18;97345.47;5064474;28;20048;-45
2021/05/18 12:12:17;;;;;;;1.33;0.75;;;14.60;52.20;;;14.21;47.21;97366.47;5064269;28;20345;-49
2021/05/18 12:14:52;;;;;;;1.42;0.95;;;14.90;53.50;;;14.41;46.13;97341.72;5064840;28;20040;-46
2021/05/18 12:17:26;;;;;;;1.02;0.75;;;15.00;52.80;;;14.53;45.88;97337.50;5063582;28;20249;-46
2021/05/18 12:19:54;;;;;;;;;;;15.30;52.30;;;14.70;46.78;97343.44;5064212;28;20154;-46
2021/05/18 12:22:23;;;;;;;1.02;0.70;;;15.50;53.00;;;14.84;46.33;97345.16;5063887;28;19924;-46
2021/05/18 12:24:55;;;;;;;1.55;0.70;;;15.70;51.80;;;14.90;46.39;97335.53;5066363;28;20052;-46
2021/05/18 12:27:23;;;;;;;3.20;0.73;;;15.60;52.30;;;14.80;45.58;97361.84;5068392;28;20075;-46
2021/05/18 12:29:57;;;;;;;0.80;0.63;;;15.40;50.70;;;14.47;44.90;97352.47;5048676;28;20040;-45
2021/05/18 12:32:28;;;;;;;1.55;0.95;;;15.10;51.10;;;14.44;44.92;97338.66;5068216;28;20053;-45
2021/05/18 12:35:06;;;;;;;1.80;0.75;;;15.00;51.40;;;14.24;44.74;97341.16;5067117;28;20142;-46
2021/05/18 12:37:47;;;;;;;1.13;0.90;;;14.80;50.20;;;14.24;45.45;97351.88;5068502;28;20063;-45
2021/05/18 12:40:26;;;;;;;1.27;0.70;;;14.60;51.90;;;14.30;44.62;97335.03;5067499;28;20078;-45
2021/05/18 12:43:22;;;;;;;1.42;1.05;;;14.70;51.20;;;14.42;45.16;97338.84;5067541;28;20052;-46
2021/05/18 12:46:21;;;;;;;0.77;0.70;;;14.90;52.20;;;14.65;44.98;97324.41;5067501;28;20052;-46
2021/05/18 12:48:49;;;;;;;3.33;0.93;;;15.30;50.60;;;14.76;44.90;97326.56;5050505;28;20380;-45
2021/05/18 12:51:20;;;;;;;1.27;0.60;;;15.40;50.60;;;14.96;44.49;97319.47;5068828;28;20436;-45
2021/05/18 12:53:49;;;;;;;2.63;0.80;;;15.70;50.90;;;15.25;44.05;97328.28;5067285;28;20056;-45
2021/05/18 12:56:38;;;;;;;0.85;0.70;;;16.00;49.70;;;15.42;43.79;97314.56;5065311;28;20048;-47
2021/05/18 12:59:09;;;;;;;2.60;0.90;;;16.30;49.20;;;15.61;42.36;97329.91;5066900;28;20387;-46
2021/05/18 13:01:42;;;;;;;1.90;0.70;;;16.50;48.40;;;15.58;41.64;97330.31;5065729;28;20349;-44
2021/05/18 13:04:12;;;;;;;2.60;1.33;;;16.40;46.60;;;15.64;43.05;97312.56;5073759;28;20052;-45
2021/05/18 13:06:48;;;;;;;5.38;1.73;;;16.40;48.80;;;15.65;41.15;97316.94;5055474;28;20049;-45
2021/05/18 13:09:20;;;;;;;0.50;0.50;;;16.40;46.10;;;15.66;40.52;97327.44;5074215;28;20098;-44
2021/05/18 13:12:12;;;;;;;2.70;0.60;;;16.40;45.50;;;15.82;40.56;97320.09;5083228;28;20050;-47
2021/05/18 13:15:03;;;;;;;1.80;0.60;;;16.60;45.90;;;15.74;39.48;97313.03;5069654;28;20044;-44
2021/05/18 13:17:31;;;;;;;1.20;0.60;;;16.40;44.30;;;15.84;40.10;97318.03;5082697;28;20044;-44
2021/05/18 13:20:09;;;;;;;0.63;0.47;;;16.60;45.60;;;15.92;38.92;97325.91;5057067;28;20052;-45
2021/05/18 13:22:41;;;;;;;1.25;0.70;;;16.60;44.30;;;15.92;39.62;97321.38;5043172;28;20059;-47
2021/05/18 13:28:02;;;;;;;1.15;0.90;;;16.20;43.50;;;15.60;40.35;97332.78;5042908;28;20335;-44
2021/05/18 13:30:33;;;;;;;2.13;0.70;;;15.80;46.20;;;15.41;45.21;97337.03;5043534;28;20248;-44
2021/05/18 13:33:02;;;;;;;2.13;0.93;;;15.60;53.60;;;15.34;46.79;97342.38;5041812;28;20067;-47
2021/05/18 13:35:31;;;;;;;1.80;0.82;;;15.50;55.50;;;14.95;47.36;97349.19;5042324;28;20141;-47
2021/05/18 13:38:04;;;;;;;1.55;0.80;;;15.00;55.40;;;14.76;47.69;97340.78;5042018;28;20059;-44
2021/05/18 13:40:33;;;;;;;1.33;0.77;;;14.80;56.00;;;14.76;48.41;97350.69;5041836;28;20076;-49
2021/05/18 13:43:01;;;;;;;1.02;0.82;;;14.80;56.90;;;14.46;48.34;97345.47;5042132;28;20049;-47
2021/05/18 13:45:29;;;;;;;1.83;0.55;;;14.60;56.40;;;14.54;48.94;97353.38;5041984;28;20068;-45
2021/05/18 13:47:58;;;;;;;2.65;0.80;;;14.70;57.30;;;14.47;49.72;97348.97;5040144;28;20374;-46
2021/05/18 13:50:28;;;;;;;1.02;0.60;;;14.60;58.20;;;14.15;53.19;97341.28;5041745;28;20049;-47
2021/05/18 13:52:57;;;;;;;1.20;0.70;;;14.20;63.40;;;14.04;52.72;97343.66;5041751;28;20370;-47
2021/05/18 13:55:26;;;;;;;1.73;0.88;;;14.20;62.10;;;14.09;54.25;97343.88;5044692;28;20075;-45
2021/05/18 13:57:54;;;;;;;1.48;0.80;;;14.10;65.60;;;14.13;52.37;97340.66;5061595;28;20362;-46
2021/05/18 14:00:23;;;;;;;1.30;0.68;;;14.30;61.80;;;14.11;52.21;97323.09;5043765;28;20049;-45
2021/05/18 14:02:52;;;;;;;0.65;0.63;;;14.40;60.60;;;14.16;51.31;97331.41;5056940;28;20057;-45
2021/05/18 14:05:28;;;;;;;0.68;0.50;;;14.70;59.10;;;14.51;51.63;97335.00;5062191;28;20343;-48
2021/05/18 14:08:37;;;;;;;1.52;0.90;;;15.10;59.40;;;14.87;50.73;97333.22;5061529;28;20056;-46
2021/05/18 14:11:11;;;;;;;2.33;0.68;;;15.60;58.10;;;15.05;49.13;97328.19;5041881;28;20046;-48
2021/05/18 14:13:45;;;;;;;;;;;15.80;56.40;;;15.18;45.92;97335.50;5041496;28;20041;-44
2021/05/18 14:16:21;;;;;;;3.33;0.85;;;15.90;51.90;;;15.49;47.12;97336.84;5041664;28;19923;-47
2021/05/18 14:18:53;;;;;;;1.95;0.60;;;16.30;53.20;;;15.65;46.92;97335.72;5039705;28;20068;-46
2021/05/18 14:21:26;;;;;;;1.05;0.68;;;16.40;53.10;;;15.45;44.19;97339.13;5039563;28;20053;-46
2021/05/18 14:24:08;;;;;;;2.75;0.82;;;16.40;50.10;;;15.57;45.69;97328.66;5041459;28;20230;-46
2021/05/18 14:26:38;;;;;;;1.35;0.80;;;16.30;52.40;;;15.62;47.07;97325.38;5041778;28;20053;-45
2021/05/18 14:29:07;;;;;;;1.38;0.80;;;16.10;53.80;;;15.51;46.61;97324.91;5039279;28;20050;-46
2021/05/18 14:31:36;;;;;;;1.17;0.60;;;15.80;54.50;;;15.31;46.96;97340.91;5007789;28;975725;-46
2021/05/18 14:34:08;;;;;;;1.13;0.80;;;15.60;54.10;;;15.13;46.28;97346.78;5040121;28;20243;-47
2021/05/18 14:36:37;;;;;;;1.95;0.80;;;15.40;53.40;;;14.92;48.33;97358.41;5043127;28;20055;-45
2021/05/18 14:39:09;;;;;;;2.60;0.90;;;15.30;56.40;;;14.67;54.05;97360.69;5041072;28;20045;-48
2021/05/18 14:44:28;;;;;;;1.38;0.68;;;14.60;66.20;;;14.12;55.93;97352.38;5041556;28;20052;-47
2021/05/18 14:55:16;;;;;;;0.60;0.60;;;14.50;62.40;;;14.38;53.48;97337.56;5040894;28;20071;-46
2021/05/18 14:57:46;;;;;;;1.30;0.80;;;14.70;62.30;;;14.77;54.90;97328.22;5042076;28;20047;-45
2021/05/18 15:00:16;;;;;;;0.75;0.75;;;15.40;63.70;;;15.12;53.62;97325.53;5043837;28;20362;-46
2021/05/18 15:02:45;;;;;;;1.85;1.05;;;15.90;61.20;;;15.20;52.47;97321.88;5058859;28;20053;-47
2021/05/18 15:05:16;;;;;;;2.10;1.20;;;15.80;60.60;;;15.45;52.25;97309.63;5056463;28;20056;-46
2021/05/18 15:07:45;;;;;;;1.10;1.00;;;16.20;59.40;;;15.71;52.92;97308.06;5061033;28;20045;-45
2021/05/18 15:10:14;;;;;;;1.20;1.10;;;16.60;60.10;;;16.02;49.89;97312.91;5076376;28;20053;-45
2021/05/18 15:12:43;;;;;;;1.33;0.70;;;17.10;56.90;;;16.24;50.41;97310.88;5043144;28;20055;-47
2021/05/18 15:15:13;;;;;;;10.00;2.05;;;17.20;57.10;;;16.50;48.11;97325.38;5058143;28;20057;-45
2021/05/18 15:17:44;;;;;;;2.35;0.90;;;17.60;54.10;;;16.84;48.90;97321.63;5053223;28;20045;-45
2021/05/18 15:20:14;;;;;;;2.08;1.33;;;17.90;55.00;;;16.76;47.59;97323.69;5039617;28;20255;-45
2021/05/18 15:22:44;;;;;;;1.55;1.45;;;17.50;54.30;;;16.81;47.08;97338.16;5039153;28;20079;-47
2021/05/18 15:25:14;;;;;;;1.33;1.00;;;17.70;52.20;;;16.96;46.83;97337.94;5039632;28;20363;-46
2021/05/18 15:27:44;;;;;;;1.05;0.80;;;17.90;53.00;;;16.79;46.29;97334.84;5040219;28;20045;-46
2021/05/18 15:30:15;;;;;;;1.08;0.60;;;17.20;52.90;;;16.73;47.11;97333.00;5040621;28;20067;-46
2021/05/18 15:32:44;;;;;;;0.57;0.50;;;16.90;54.60;;;16.42;46.79;97333.59;5039831;28;20056;-48
2021/05/18 15:35:13;;;;;;;1.70;0.80;;;16.70;54.30;;;15.82;50.56;97355.81;5041147;28;20238;-47
2021/05/18 15:37:45;;;;;;;2.00;1.15;;;15.80;59.90;;;15.22;53.37;97360.88;5038651;28;20045;-48
2021/05/18 15:40:15;;;;;;;1.95;1.13;;;14.40;69.70;;;14.36;58.77;97366.38;5037964;28;20358;-50
2021/05/18 15:42:43;;;;;;;0.60;0.60;;;13.30;74.70;;;13.58;57.57;97350.94;5047148;28;20376;-47
2021/05/18 15:45:12;;;;;;;1.63;0.70;;;12.50;74.50;;;13.37;58.71;97354.38;5057449;28;20053;-47
2021/05/18 15:47:41;;;;;;;0.95;0.90;;;12.30;75.60;;;13.39;57.44;97354.22;5057416;28;20044;-47
2021/05/18 15:50:10;;;;;;;0.70;0.70;;;12.40;74.20;;;13.28;57.66;97352.81;5053108;28;20044;-47
2021/05/18 15:52:39;;;;;;;1.08;0.90;;;12.50;73.20;;;13.14;58.33;97351.81;5058954;28;20049;-48